Accueil
METAR-TAF:

METAR-TAF

Aéroports :

Aéroport de Marseille Provence, Marignane

Marseille, France

latitude: 43-27N, longitude: 005-14E, altitude: 6 m

Observation

Le bulletin a été fait il y a 17 minutes, à 07:00 UTC
Vent 2 kt de direction variable
Température 17°C
Humidité 72%
Pression 1024 hPa
Visibilité 10 km ou plus
pas de nuages en-dessous de 1500 mètres et pas de cumulonimbus.

METAR: LFML 140700Z AUTO VRB02KT CAVOK 17/12 Q1024 NOSIG

Heure: 09:17 (07:17 UTC)

Prévision

Le bulletin a été fait il y a 5 heures et 17 minutes, à 02:00 UTC
Prévision valable du 14 à 03 UTC au 15 à 09 UTC
Vent 5 kt de direction variable
Visibilité 10 km ou plus
pas de nuages en-dessous de 1500 mètres et pas de cumulonimbus.

TAF: LFML 140200Z 1403/1509 VRB05KT CAVOK TX26/1413Z TN14/1405Z

Observations et prévisions météorologiques de plus de 4000 aéroports (messages METAR et TAF).

Les stations disponibles sont représentées par des disques jaunes et rouges sur la carte.

Passer la souris dessus pour voir le nom de la station.

Cliquer dessus pour voir les observations et prévisions météorologiques.

Pour changer de carte: cliquez sur les boutons verts avec une croix noire pour zoomer, sur le bouton vert avec un tiret pour effectuer un zoom arrière, ou sur les flèches vertes pour les cartes adjacentes.


METAR-TAF: